createdAt,value
2023-05-12T00:00:22.204Z,100112.72
2023-05-12T00:02:49.345Z,100121.47
2023-05-12T00:05:16.529Z,100119.00
2023-05-12T00:07:43.633Z,100110.03
2023-05-12T00:10:10.914Z,100107.22
2023-05-12T00:12:38.023Z,100096.97
2023-05-12T00:15:05.607Z,100095.56
2023-05-12T00:17:32.681Z,100095.09
2023-05-12T00:19:59.788Z,100094.63
2023-05-12T00:22:26.909Z,100092.09
2023-05-12T00:24:54.052Z,100093.59
2023-05-12T00:27:21.090Z,100096.63
2023-05-12T00:29:48.174Z,100084.69
2023-05-12T00:32:15.380Z,100086.75
2023-05-12T00:34:43.257Z,100080.84
2023-05-12T00:37:10.293Z,100084.19
2023-05-12T00:39:38.111Z,100086.09
2023-05-12T00:42:05.643Z,100076.31
2023-05-12T00:44:32.879Z,100078.91
2023-05-12T00:47:00.130Z,100079.69
2023-05-12T00:49:27.442Z,100083.56
2023-05-12T00:51:55.893Z,100075.00
2023-05-12T00:54:23.185Z,100076.22
2023-05-12T00:56:50.403Z,100072.47
2023-05-12T00:59:18.139Z,100071.53
2023-05-12T01:01:45.329Z,100070.63
2023-05-12T01:04:13.627Z,100070.13
2023-05-12T01:06:43.919Z,100067.81
2023-05-12T01:09:11.466Z,100069.50
2023-05-12T01:11:38.682Z,100076.75
2023-05-12T01:14:07.430Z,100066.97
2023-05-12T01:16:39.513Z,100067.59
2023-05-12T01:19:10.463Z,100066.63
2023-05-12T01:21:38.570Z,100059.06
2023-05-12T01:24:07.477Z,100068.16
2023-05-12T01:26:34.880Z,100070.91
2023-05-12T01:29:02.882Z,100053.53
2023-05-12T01:31:30.214Z,100060.00
2023-05-12T01:33:57.713Z,100058.56
2023-05-12T01:36:25.494Z,100058.69
2023-05-12T01:38:52.788Z,100063.72
2023-05-12T01:41:21.126Z,100059.91
2023-05-12T01:43:48.284Z,100053.34
2023-05-12T01:46:15.919Z,100054.84
2023-05-12T01:48:44.058Z,100057.53
2023-05-12T01:51:11.220Z,100052.34
2023-05-12T01:53:38.477Z,100055.63
2023-05-12T01:56:06.009Z,100052.59
2023-05-12T01:58:34.146Z,100059.06
2023-05-12T02:01:01.316Z,100063.59
2023-05-12T02:03:28.781Z,100062.09
2023-05-12T02:05:57.509Z,100051.69
2023-05-12T02:08:25.101Z,100049.88
2023-05-12T02:11:03.874Z,100048.66
2023-05-12T02:13:31.039Z,100043.81
2023-05-12T02:15:58.203Z,100054.38
2023-05-12T02:18:25.504Z,100055.88
2023-05-12T02:20:53.741Z,100037.25
2023-05-12T02:23:20.875Z,100040.63
2023-05-12T02:25:48.031Z,100042.97
2023-05-12T02:28:16.043Z,100040.63
2023-05-12T02:30:48.614Z,100038.22
2023-05-12T02:33:16.792Z,100043.28
2023-05-12T02:35:44.750Z,100040.75
2023-05-12T02:38:12.133Z,100041.91
2023-05-12T02:40:39.202Z,100046.28
2023-05-12T02:43:06.610Z,100039.06
2023-05-12T02:45:34.094Z,100035.69
2023-05-12T02:48:01.220Z,100038.53
2023-05-12T02:50:28.397Z,100041.28
2023-05-12T02:52:55.466Z,100045.50
2023-05-12T02:55:30.385Z,100032.03
2023-05-12T02:57:57.482Z,100035.91
2023-05-12T03:00:24.679Z,100038.44
2023-05-12T03:02:53.611Z,100039.28
2023-05-12T03:05:20.928Z,100053.06
2023-05-12T03:07:49.369Z,100041.66
2023-05-12T03:10:17.261Z,100041.59
2023-05-12T03:12:44.310Z,100041.91
2023-05-12T03:15:11.474Z,100038.22
2023-05-12T03:17:38.610Z,100035.25
2023-05-12T03:20:06.575Z,100036.03
2023-05-12T03:22:33.876Z,100044.09
2023-05-12T03:25:01.071Z,100041.81
2023-05-12T03:27:28.481Z,100032.03
2023-05-12T03:29:55.647Z,100037.38
2023-05-12T03:32:22.682Z,100038.75
2023-05-12T03:34:49.789Z,100041.59
2023-05-12T03:37:17.084Z,100031.19
2023-05-12T03:39:45.217Z,100031.81
2023-05-12T03:42:13.331Z,100038.53
2023-05-12T03:44:41.350Z,100033.16
2023-05-12T03:47:09.052Z,100033.72
2023-05-12T03:49:37.198Z,100029.69
2023-05-12T03:52:04.521Z,100030.66
2023-05-12T03:54:31.593Z,100036.03
2023-05-12T03:56:58.622Z,100023.91
2023-05-12T03:59:25.789Z,100029.81
2023-05-12T04:01:53.568Z,100028.97
2023-05-12T04:04:20.906Z,100029.81
2023-05-12T04:06:48.121Z,100031.19
2023-05-12T04:09:18.654Z,100032.38
2023-05-12T04:11:46.030Z,100031.53
2023-05-12T04:14:13.050Z,100034.56
2023-05-12T04:16:40.797Z,100034.91
2023-05-12T04:19:07.981Z,100030.88
2023-05-12T04:21:35.945Z,100030.47
2023-05-12T04:24:03.192Z,100039.38
2023-05-12T04:26:33.918Z,100039.75
2023-05-12T04:29:00.957Z,100035.34
2023-05-12T04:31:28.019Z,100041.75
2023-05-12T04:33:56.061Z,100045.50
2023-05-12T04:36:24.557Z,100050.31
2023-05-12T04:38:51.639Z,100055.38
2023-05-12T04:41:18.761Z,100057.06
2023-05-12T04:46:16.146Z,100048.28
2023-05-12T04:48:43.608Z,100058.56
2023-05-12T04:51:10.680Z,100060.22
2023-05-12T04:53:37.733Z,100062.53
2023-05-12T04:56:04.908Z,100052.66
2023-05-12T04:58:37.235Z,100050.94
2023-05-12T05:01:04.532Z,100062.22
2023-05-12T05:03:33.320Z,100075.00
2023-05-12T05:06:01.159Z,100065.91
2023-05-12T05:08:28.420Z,100073.47
2023-05-12T05:10:55.491Z,100065.41
2023-05-12T05:13:22.568Z,100064.44
2023-05-12T05:15:53.368Z,100067.59
2023-05-12T05:18:23.781Z,100065.06
2023-05-12T05:20:57.678Z,100070.13
2023-05-12T05:23:26.104Z,100072.63
2023-05-12T05:25:53.396Z,100070.13
2023-05-12T05:28:20.416Z,100071.47
2023-05-12T05:30:47.477Z,100080.53
2023-05-12T05:33:15.350Z,100079.69
2023-05-12T05:35:42.530Z,100073.97
2023-05-12T05:38:10.688Z,100074.09
2023-05-12T05:40:49.332Z,100077.47
2023-05-12T05:43:19.020Z,100066.13
2023-05-12T05:45:46.266Z,100078.19
2023-05-12T05:48:13.550Z,100085.75
2023-05-12T05:50:40.729Z,100088.28
2023-05-12T05:53:07.800Z,100091.81
2023-05-12T05:55:34.934Z,100088.94
2023-05-12T05:58:02.125Z,100089.13
2023-05-12T06:00:29.501Z,100087.28
2023-05-12T06:02:56.650Z,100086.44
2023-05-12T06:05:23.826Z,100096.00
2023-05-12T06:07:51.183Z,100089.13
2023-05-12T06:10:18.463Z,100089.97
2023-05-12T06:12:45.864Z,100098.69
2023-05-12T06:15:12.982Z,100097.38
2023-05-12T06:17:40.154Z,100097.38
2023-05-12T06:20:07.701Z,100102.06
2023-05-12T06:22:35.234Z,100091.47
2023-05-12T06:25:02.275Z,100104.72
2023-05-12T06:27:29.491Z,100107.13
2023-05-12T06:29:56.536Z,100112.00
2023-05-12T06:32:23.625Z,100114.53
2023-05-12T06:34:50.775Z,100117.22
2023-05-12T06:37:17.886Z,100112.84
2023-05-12T06:39:44.915Z,100119.75
2023-05-12T06:42:11.930Z,100119.75
2023-05-12T06:44:42.672Z,100115.88
2023-05-12T06:47:09.763Z,100113.75
2023-05-12T06:49:38.626Z,100115.56
2023-05-12T06:52:06.574Z,100115.56
2023-05-12T06:54:33.699Z,100118.94
2023-05-12T06:57:00.877Z,100125.97
2023-05-12T06:59:27.938Z,100121.00
2023-05-12T07:01:55.167Z,100117.63
2023-05-12T07:04:22.733Z,100120.16
2023-05-12T07:06:50.050Z,100124.72
2023-05-12T07:09:18.720Z,100122.41
2023-05-12T07:11:45.873Z,100126.78
2023-05-12T07:14:12.873Z,100128.47
2023-05-12T07:16:39.918Z,100126.63
2023-05-12T07:19:09.030Z,100112.81
2023-05-12T07:21:37.264Z,100112.31
2023-05-12T07:24:06.069Z,100118.72
2023-05-12T07:26:33.469Z,100129.66
2023-05-12T07:29:00.885Z,100131.56
2023-05-12T07:31:28.661Z,100133.91
2023-05-12T07:33:56.009Z,100136.59
2023-05-12T07:36:23.070Z,100131.56
2023-05-12T07:38:50.171Z,100136.28
2023-05-12T07:41:18.021Z,100139.84
2023-05-12T07:43:45.548Z,100143.53
2023-05-12T07:46:12.909Z,100146.38
2023-05-12T07:48:40.432Z,100155.47
2023-05-12T07:51:08.143Z,100163.88
2023-05-12T07:53:35.572Z,100173.97
2023-05-12T07:56:02.660Z,100205.53
2023-05-12T07:58:29.888Z,100212.63
2023-05-12T08:01:00.041Z,100213.28
2023-05-12T08:03:27.337Z,100208.56
2023-05-12T08:05:54.506Z,100226.06
2023-05-12T08:08:21.670Z,100222.72
2023-05-12T08:10:48.717Z,100236.22
2023-05-12T08:13:15.849Z,100220.72
2023-05-12T08:15:43.007Z,100216.84
2023-05-12T08:18:10.184Z,100232.47
2023-05-12T08:20:37.391Z,100233.22
2023-05-12T08:23:04.417Z,100235.91
2023-05-12T08:25:31.548Z,100238.09
2023-05-12T08:27:59.793Z,100252.09
2023-05-12T08:30:27.345Z,100244.66
2023-05-12T08:32:54.867Z,100234.03
2023-05-12T08:35:22.474Z,100238.75
2023-05-12T08:37:49.694Z,100232.84
2023-05-12T08:40:27.213Z,100246.47
2023-05-12T08:43:01.762Z,100227.16
2023-05-12T08:45:29.456Z,100242.81
2023-05-12T08:47:56.762Z,100265.50
2023-05-12T08:50:24.680Z,100254.03
2023-05-12T08:52:52.013Z,100258.22
2023-05-12T08:55:19.370Z,100267.50
2023-05-12T08:57:48.470Z,100277.47
2023-05-12T09:00:16.194Z,100264.19
2023-05-12T09:02:52.821Z,100263.34
2023-05-12T09:05:22.382Z,100251.84
2023-05-12T09:07:50.348Z,100262.44
2023-05-12T09:10:32.680Z,100274.59
2023-05-12T09:13:24.534Z,100256.13
2023-05-12T09:15:53.945Z,100244.31
2023-05-12T09:18:21.223Z,100260.25
2023-05-12T09:20:48.499Z,100275.25
2023-05-12T09:23:19.594Z,100278.63
2023-05-12T09:25:47.146Z,100275.59
2023-05-12T09:28:14.481Z,100281.13
2023-05-12T09:30:42.599Z,100274.69
2023-05-12T09:33:10.951Z,100277.69
2023-05-12T09:35:40.666Z,100277.03
2023-05-12T09:38:11.429Z,100285.09
2023-05-12T09:40:38.881Z,100283.31
2023-05-12T09:43:06.754Z,100290.38
2023-05-12T09:45:37.357Z,100303.56
2023-05-12T09:48:08.962Z,100300.41
2023-05-12T09:50:47.374Z,100302.50
2023-05-12T09:53:15.653Z,100290.25
2023-05-12T09:55:43.852Z,100304.41
2023-05-12T09:58:11.158Z,100310.84
2023-05-12T10:00:58.570Z,100310.59
2023-05-12T10:03:28.289Z,100286.47
2023-05-12T10:06:00.806Z,100312.75
2023-05-12T10:08:32.078Z,100301.25
2023-05-12T10:10:59.982Z,100327.88
2023-05-12T10:13:27.283Z,100321.47
2023-05-12T10:15:56.337Z,100321.47
2023-05-12T10:18:24.210Z,100323.03
2023-05-12T10:20:52.005Z,100330.91
2023-05-12T10:23:19.895Z,100313.78
2023-05-12T10:25:47.753Z,100334.84
2023-05-12T10:28:14.881Z,100333.31
2023-05-12T10:30:43.049Z,100334.72
2023-05-12T10:33:11.829Z,100337.75
2023-05-12T10:35:39.989Z,100342.66
2023-05-12T10:38:07.465Z,100348.06
2023-05-12T10:40:34.649Z,100343.38
2023-05-12T10:43:01.958Z,100333.91
2023-05-12T10:45:34.633Z,100361.56
2023-05-12T10:48:06.115Z,100342.53
2023-05-12T10:50:33.672Z,100347.44
2023-05-12T10:53:00.790Z,100352.47
2023-05-12T10:55:35.456Z,100341.00
2023-05-12T10:58:07.362Z,100337.81
2023-05-12T11:00:44.051Z,100336.44
2023-05-12T11:05:40.844Z,100340.31
2023-05-12T11:08:09.217Z,100337.81
2023-05-12T11:10:36.857Z,100340.66
2023-05-12T11:13:04.761Z,100332.75
2023-05-12T11:15:31.785Z,100342.34
2023-05-12T11:18:02.300Z,100334.75
2023-05-12T11:20:30.921Z,100336.97
2023-05-12T11:22:58.454Z,100348.22
2023-05-12T11:25:26.361Z,100341.16
2023-05-12T11:27:53.712Z,100353.31
2023-05-12T11:30:21.336Z,100351.47
2023-05-12T11:32:48.863Z,100345.19
2023-05-12T11:35:17.602Z,100352.63
2023-05-12T11:37:45.663Z,100348.59
2023-05-12T11:40:20.051Z,100347.91
2023-05-12T11:42:49.012Z,100333.91
2023-05-12T11:45:23.629Z,100343.50
2023-05-12T11:47:50.889Z,100344.03
2023-05-12T11:50:22.606Z,100355.13
2023-05-12T11:52:50.353Z,100349.22
2023-05-12T11:55:22.430Z,100359.66
2023-05-12T11:57:57.210Z,100350.91
2023-05-12T12:00:32.340Z,100351.75
2023-05-12T12:03:09.926Z,100353.78
2023-05-12T12:05:37.627Z,100346.81
2023-05-12T12:08:09.431Z,100364.81
2023-05-12T12:10:36.579Z,100355.22
2023-05-12T12:13:03.710Z,100365.31
2023-05-12T12:15:30.792Z,100367.47
2023-05-12T12:17:57.864Z,100361.41
2023-05-12T12:20:25.128Z,100378.09
2023-05-12T12:22:53.036Z,100372.00
2023-05-12T12:25:21.113Z,100379.38
2023-05-12T12:27:49.034Z,100379.63
2023-05-12T12:30:16.994Z,100379.38
2023-05-12T12:32:44.690Z,100379.25
2023-05-12T12:35:13.051Z,100378.38
2023-05-12T12:37:40.654Z,100386.13
2023-05-12T12:40:08.295Z,100379.19
2023-05-12T12:42:36.276Z,100371.53
2023-05-12T12:45:08.372Z,100373.72
2023-05-12T12:47:35.941Z,100364.09
2023-05-12T12:50:03.553Z,100376.81
2023-05-12T12:52:30.786Z,100380.59
2023-05-12T12:54:57.881Z,100374.56
2023-05-12T12:57:26.016Z,100369.47
2023-05-12T12:59:53.824Z,100377.91
2023-05-12T13:02:21.032Z,100384.78
2023-05-12T13:04:48.092Z,100378.84
2023-05-12T13:07:15.260Z,100369.88
2023-05-12T13:09:42.440Z,100377.16
2023-05-12T13:12:09.537Z,100386.31
2023-05-12T13:14:36.553Z,100377.41
2023-05-12T13:17:03.909Z,100388.34
2023-05-12T13:19:30.995Z,100386.03
2023-05-12T13:21:58.028Z,100389.56
2023-05-12T13:24:25.348Z,100399.31
2023-05-12T13:26:52.403Z,100395.31
2023-05-12T13:29:19.544Z,100377.94
2023-05-12T13:31:46.811Z,100396.84
2023-05-12T13:34:14.177Z,100398.22
2023-05-12T13:36:41.340Z,100393.50
2023-05-12T13:39:10.103Z,100394.13
2023-05-12T13:41:37.300Z,100388.44
2023-05-12T13:44:04.522Z,100399.22
2023-05-12T13:46:31.689Z,100394.00
2023-05-12T13:48:58.767Z,100388.25
2023-05-12T13:51:26.300Z,100395.31
2023-05-12T13:53:53.546Z,100402.91
2023-05-12T13:56:20.645Z,100391.94
2023-05-12T13:58:47.841Z,100390.91
2023-05-12T14:01:14.913Z,100400.47
2023-05-12T14:03:42.629Z,100395.47
2023-05-12T14:06:09.855Z,100394.47
2023-05-12T14:08:36.915Z,100391.56
2023-05-12T14:11:04.340Z,100393.09
2023-05-12T14:13:31.398Z,100403.56
2023-05-12T14:15:58.578Z,100399.31
2023-05-12T14:18:26.112Z,100397.47
2023-05-12T14:20:53.246Z,100401.69
2023-05-12T14:23:20.336Z,100399.84
2023-05-12T14:25:47.405Z,100400.16
2023-05-12T14:28:14.579Z,100395.44
2023-05-12T14:30:43.378Z,100394.59
2023-05-12T14:33:11.033Z,100403.66
2023-05-12T14:35:38.130Z,100391.53
2023-05-12T14:38:05.312Z,100399.75
2023-05-12T14:40:32.320Z,100405.97
2023-05-12T14:43:00.061Z,100405.66
2023-05-12T14:45:28.387Z,100410.88
2023-05-12T14:47:55.745Z,100408.19
2023-05-12T14:50:23.256Z,100416.25
2023-05-12T14:52:50.450Z,100413.25
2023-05-12T14:55:17.651Z,100415.09
2023-05-12T14:57:44.799Z,100410.03
2023-05-12T15:00:12.694Z,100411.56
2023-05-12T15:02:40.366Z,100405.81
2023-05-12T15:05:08.726Z,100401.97
2023-05-12T15:07:35.985Z,100400.25
2023-05-12T15:10:03.315Z,100413.06
2023-05-12T15:12:31.600Z,100401.97
2023-05-12T15:15:01.269Z,100404.19
2023-05-12T15:17:28.862Z,100411.22
2023-05-12T15:19:56.163Z,100412.91
2023-05-12T15:22:23.240Z,100415.47
2023-05-12T15:24:50.234Z,100409.94
2023-05-12T15:27:17.294Z,100425.56
2023-05-12T15:29:44.302Z,100408.38
2023-05-12T15:32:11.340Z,100410.22
2023-05-12T15:34:41.794Z,100404.50
2023-05-12T15:37:09.889Z,100400.81
2023-05-12T15:39:37.048Z,100414.63
2023-05-12T15:42:05.549Z,100417.16
2023-05-12T15:44:34.604Z,100412.56
2023-05-12T15:47:01.688Z,100408.03
2023-05-12T15:49:28.801Z,100409.88
2023-05-12T15:51:55.870Z,100412.56
2023-05-12T15:54:23.107Z,100396.72
2023-05-12T15:56:50.317Z,100400.25
2023-05-12T15:59:17.324Z,100407.13
2023-05-12T16:01:44.358Z,100402.03
2023-05-12T16:04:11.980Z,100409.44
2023-05-12T16:06:39.109Z,100404.06
2023-05-12T16:09:06.144Z,100389.56
2023-05-12T16:11:33.205Z,100394.44
2023-05-12T16:14:02.226Z,100393.94
2023-05-12T16:16:29.840Z,100384.03
2023-05-12T16:18:56.914Z,100386.31
2023-05-12T16:21:23.986Z,100390.00
2023-05-12T16:23:51.012Z,100386.16
2023-05-12T16:26:19.275Z,100389.19
2023-05-12T16:28:46.922Z,100382.97
2023-05-12T16:31:17.912Z,100382.13
2023-05-12T16:33:45.244Z,100378.94
2023-05-12T16:36:12.993Z,100388.41
2023-05-12T16:38:40.356Z,100380.50
2023-05-12T16:41:07.689Z,100384.38
2023-05-12T16:43:34.987Z,100373.63
2023-05-12T16:46:02.967Z,100375.31
2023-05-12T16:48:34.154Z,100374.63
2023-05-12T16:51:02.364Z,100361.56
2023-05-12T16:53:29.997Z,100360.00
2023-05-12T16:55:57.877Z,100370.28
2023-05-12T16:58:27.435Z,100365.25
2023-05-12T17:00:54.544Z,100354.47
2023-05-12T17:03:21.862Z,100361.84
2023-05-12T17:05:49.909Z,100356.97
2023-05-12T17:08:18.950Z,100351.44
2023-05-12T17:10:46.334Z,100354.28
2023-05-12T17:13:13.400Z,100356.28
2023-05-12T17:15:40.659Z,100359.13
2023-05-12T17:18:07.799Z,100355.78
2023-05-12T17:20:35.026Z,100361.81
2023-05-12T17:23:02.542Z,100368.88
2023-05-12T17:25:31.167Z,100373.56
2023-05-12T17:27:58.652Z,100371.72
2023-05-12T17:30:25.909Z,100369.38
2023-05-12T17:32:53.558Z,100372.91
2023-05-12T17:35:21.338Z,100375.59
2023-05-12T17:37:51.578Z,100373.22
2023-05-12T17:40:18.985Z,100370.53
2023-05-12T17:42:46.147Z,100368.47
2023-05-12T17:45:16.215Z,100366.78
2023-05-12T17:47:43.810Z,100360.88
2023-05-12T17:50:12.050Z,100366.94
2023-05-12T17:52:39.294Z,100357.50
2023-05-12T17:55:06.672Z,100358.50
2023-05-12T17:57:34.332Z,100362.31
2023-05-12T18:00:05.744Z,100367.88
2023-05-12T18:02:41.861Z,100349.16
2023-05-12T18:05:09.917Z,100372.19
2023-05-12T18:07:36.993Z,100370.31
2023-05-12T18:10:06.503Z,100363.34
2023-05-12T18:12:33.573Z,100367.03
2023-05-12T18:15:00.810Z,100368.34
2023-05-12T18:17:28.189Z,100370.34
2023-05-12T18:19:55.446Z,100366.09
2023-05-12T18:22:22.576Z,100362.50
2023-05-12T18:24:50.854Z,100372.47
2023-05-12T18:27:17.925Z,100381.38
2023-05-12T18:29:45.033Z,100372.66
2023-05-12T18:32:12.145Z,100375.44
2023-05-12T18:34:39.230Z,100376.13
2023-05-12T18:37:07.134Z,100373.59
2023-05-12T18:39:34.166Z,100368.69
2023-05-12T18:42:01.204Z,100369.34
2023-05-12T18:44:28.273Z,100370.34
2023-05-12T18:46:55.387Z,100373.22
2023-05-12T18:49:22.686Z,100365.59
2023-05-12T18:51:49.729Z,100373.50
2023-05-12T18:54:16.922Z,100385.81
2023-05-12T18:56:43.975Z,100377.34
2023-05-12T18:59:11.097Z,100361.94
2023-05-12T19:01:38.422Z,100373.06
2023-05-12T19:04:05.587Z,100367.75
2023-05-12T19:06:33.774Z,100364.38
2023-05-12T19:09:00.788Z,100376.81
2023-05-12T19:11:28.376Z,100371.22
2023-05-12T19:13:55.410Z,100368.09
2023-05-12T19:16:25.825Z,100378.66
2023-05-12T19:18:53.163Z,100373.47
2023-05-12T19:21:20.292Z,100377.66
2023-05-12T19:23:47.640Z,100371.06
2023-05-12T19:26:14.660Z,100367.81
2023-05-12T19:28:41.856Z,100368.44
2023-05-12T19:31:09.685Z,100371.00
2023-05-12T19:33:36.815Z,100368.44
2023-05-12T19:36:03.993Z,100377.75
2023-05-12T19:38:31.025Z,100377.50
2023-05-12T19:40:58.084Z,100382.00
2023-05-12T19:43:25.247Z,100387.78
2023-05-12T19:45:53.692Z,100384.13
2023-05-12T19:48:21.476Z,100372.31
2023-05-12T19:50:48.616Z,100376.34
2023-05-12T19:53:15.686Z,100378.34
2023-05-12T19:55:42.742Z,100370.13
2023-05-12T19:58:09.989Z,100373.66
2023-05-12T20:00:39.179Z,100372.13
2023-05-12T20:03:06.874Z,100364.25
2023-05-12T20:05:37.713Z,100358.31
2023-05-12T20:08:05.313Z,100357.19
2023-05-12T20:10:32.472Z,100352.72
2023-05-12T20:12:59.606Z,100353.34
2023-05-12T20:15:27.558Z,100363.16
2023-05-12T20:17:57.911Z,100357.63
2023-05-12T20:20:25.142Z,100346.00
2023-05-12T20:22:54.882Z,100346.28
2023-05-12T20:25:22.210Z,100345.44
2023-05-12T20:27:50.657Z,100349.09
2023-05-12T20:30:17.758Z,100342.38
2023-05-12T20:32:47.513Z,100333.63
2023-05-12T20:35:17.989Z,100330.41
2023-05-12T20:37:45.033Z,100322.34
2023-05-12T20:40:12.405Z,100326.19
2023-05-12T20:42:39.674Z,100309.28
2023-05-12T20:45:07.434Z,100304.91
2023-05-12T20:47:35.029Z,100316.59
2023-05-12T20:50:05.532Z,100316.44
2023-05-12T20:52:33.563Z,100314.88
2023-05-12T20:55:01.363Z,100312.28
2023-05-12T20:57:28.459Z,100317.66
2023-05-12T20:59:57.045Z,100316.56
2023-05-12T21:02:25.074Z,100307.25
2023-05-12T21:04:52.921Z,100305.97
2023-05-12T21:07:20.244Z,100307.50
2023-05-12T21:09:49.868Z,100302.97
2023-05-12T21:12:16.903Z,100290.50
2023-05-12T21:14:45.136Z,100285.75
2023-05-12T21:17:12.347Z,100278.38
2023-05-12T21:19:44.097Z,100287.25
2023-05-12T21:22:11.405Z,100265.31
2023-05-12T21:24:39.377Z,100281.94
2023-05-12T21:27:09.946Z,100272.81
2023-05-12T21:29:37.103Z,100279.13
2023-05-12T21:32:04.403Z,100273.09
2023-05-12T21:34:33.548Z,100273.84
2023-05-12T21:37:00.892Z,100261.44
2023-05-12T21:39:28.250Z,100262.28
2023-05-12T21:41:55.297Z,100260.06
2023-05-12T21:44:22.318Z,100263.97
2023-05-12T21:46:49.439Z,100242.59
2023-05-12T21:49:16.547Z,100252.06
2023-05-12T21:51:43.569Z,100238.44
2023-05-12T21:54:10.642Z,100231.84
2023-05-12T21:56:37.874Z,100240.13
2023-05-12T21:59:04.923Z,100248.72
2023-05-12T22:01:31.982Z,100247.56
2023-05-12T22:03:59.198Z,100243.06
2023-05-12T22:06:26.300Z,100247.69
2023-05-12T22:08:54.147Z,100244.00
2023-05-12T22:11:21.641Z,100245.69
2023-05-12T22:13:49.173Z,100238.09
2023-05-12T22:16:16.599Z,100246.84
2023-05-12T22:18:43.780Z,100230.00
2023-05-12T22:21:12.005Z,100241.13
2023-05-12T22:23:39.457Z,100241.81
2023-05-12T22:26:06.673Z,100232.81
2023-05-12T22:28:33.740Z,100229.69
2023-05-12T22:31:01.027Z,100237.84
2023-05-12T22:33:28.114Z,100235.47
2023-05-12T22:35:57.661Z,100224.66
2023-05-12T22:38:24.686Z,100218.78
2023-05-12T22:40:51.744Z,100216.78
2023-05-12T22:43:18.916Z,100220.56
2023-05-12T22:45:49.312Z,100219.28
2023-05-12T22:48:16.333Z,100216.63
2023-05-12T22:50:43.356Z,100211.41
2023-05-12T22:53:10.392Z,100214.63
2023-05-12T22:55:37.468Z,100210.88
2023-05-12T22:58:04.587Z,100201.56
2023-05-12T23:00:31.621Z,100194.97
2023-05-12T23:03:00.005Z,100183.91
2023-05-12T23:05:27.160Z,100181.34
2023-05-12T23:07:54.316Z,100190.50
2023-05-12T23:10:21.601Z,100193.59
2023-05-12T23:12:48.792Z,100191.44
2023-05-12T23:15:15.876Z,100182.31
2023-05-12T23:17:43.004Z,100189.22
2023-05-12T23:20:10.290Z,100192.00
2023-05-12T23:22:37.387Z,100189.47
2023-05-12T23:25:04.493Z,100171.16
2023-05-12T23:27:31.531Z,100168.66
2023-05-12T23:29:59.465Z,100163.59
2023-05-12T23:32:26.652Z,100163.47
2023-05-12T23:34:53.800Z,100148.72
2023-05-12T23:37:20.848Z,100153.09
2023-05-12T23:39:47.916Z,100164.63
2023-05-12T23:42:14.971Z,100155.88
2023-05-12T23:44:41.973Z,100144.06
2023-05-12T23:47:09.019Z,100150.81
2023-05-12T23:49:36.080Z,100143.94
2023-05-12T23:52:03.251Z,100127.19
2023-05-12T23:54:30.298Z,100141.53
2023-05-12T23:56:57.299Z,100141.66
2023-05-12T23:59:24.344Z,100149.53
